Time;durP1;ratioP1;P1;durP2;ratioP2;P2;SDS_P1;SDS_P2;PMS_P1;PMS_P2;Temp;Humidity;BMP_temperature;BMP_pressure;BME280_temperature;BME280_humidity;BME280_pressure;Samples;Min_cycle;Max_cycle;Signal;HPM_P1;HPM_P2
2022/05/02 00:00:41;;;;;;;11.30;7.47;;;;;;;-142.75;100.00;78283.22;5050312;28;20447;-67
2022/05/02 00:03:07;;;;;;;14.17;7.23;;;;;;;-142.75;100.00;78287.16;5032660;28;20029;-67
2022/05/02 00:05:32;;;;;;;11.50;6.85;;;;;;;-142.75;100.00;78287.16;5049309;28;20033;-67
2022/05/02 00:07:57;;;;;;;13.27;7.22;;;;;;;-142.75;100.00;78293.06;5049162;28;20027;-67
2022/05/02 00:10:23;;;;;;;9.73;6.18;;;;;;;-142.75;100.00;78293.06;5050150;28;20107;-67
2022/05/02 00:12:49;;;;;;;11.05;6.95;;;;;;;-142.75;100.00;78277.31;5050263;28;20032;-67
2022/05/02 00:15:14;;;;;;;12.77;7.75;;;;;;;-142.75;100.00;78281.25;5050341;28;20549;-68
2022/05/02 00:17:59;;;;;;;12.43;7.00;;;;;;;-142.75;100.00;78273.38;5050112;28;20025;-68
2022/05/02 00:20:33;;;;;;;12.67;6.63;;;;;;;-142.75;100.00;78281.25;5049819;28;20368;-67
2022/05/02 00:23:01;;;;;;;11.17;6.00;;;;;;;-142.75;100.00;78281.25;5050340;28;20091;-67
2022/05/02 00:25:28;;;;;;;9.17;6.13;;;;;;;-142.75;100.00;78279.28;5050148;28;20033;-67
2022/05/02 00:27:54;;;;;;;10.53;6.57;;;;;;;-142.75;100.00;78279.28;5050211;28;20025;-67
2022/05/02 00:30:19;;;;;;;9.63;6.15;;;;;;;-142.75;100.00;78277.31;5050010;28;20031;-67
2022/05/02 00:32:45;;;;;;;10.00;6.13;;;;;;;-142.75;100.00;78277.31;5032244;28;20032;-68
2022/05/02 00:35:11;;;;;;;11.38;5.80;;;;;;;-142.75;100.00;78269.44;5049839;28;20132;-67
2022/05/02 00:37:38;;;;;;;13.17;5.83;;;;;;;-142.75;100.00;78273.38;5049884;28;20025;-67
2022/05/02 00:40:05;;;;;;;10.73;6.47;;;;;;;-142.75;100.00;78281.25;5031972;28;20063;-67
2022/05/02 00:42:31;;;;;;;10.00;6.00;;;;;;;-142.75;100.00;78275.34;5029245;28;20029;-67
2022/05/02 00:44:56;;;;;;;12.13;6.30;;;;;;;-142.75;100.00;78287.16;5012431;28;20487;-67
2022/05/02 00:47:21;;;;;;;9.20;5.60;;;;;;;-142.75;100.00;78285.19;5030137;28;20025;-67
2022/05/02 00:49:50;;;;;;;8.73;5.28;;;;;;;-142.75;100.00;78285.19;5030801;28;20280;-67
2022/05/02 00:52:17;;;;;;;9.10;5.37;;;;;;;-142.75;100.00;78293.06;5029722;28;20036;-67
2022/05/02 00:54:44;;;;;;;9.63;5.53;;;;;;;-142.75;100.00;78299.00;5011974;28;20053;-67
2022/05/02 00:57:14;;;;;;;8.53;5.60;;;;;;;-142.75;100.00;78299.00;5030053;28;20017;-67
2022/05/02 00:59:40;;;;;;;10.73;6.70;;;;;;;-142.75;100.00;78306.88;5029786;28;20017;-67
2022/05/02 01:02:08;;;;;;;12.37;5.97;;;;;;;-142.75;100.00;78304.91;5029687;28;20032;-67
2022/05/02 01:04:34;;;;;;;10.30;5.60;;;;;;;-142.75;100.00;78324.59;5011923;28;20440;-67
2022/05/02 01:07:09;;;;;;;;;;;;;;;-142.75;100.00;78318.69;5030279;28;20075;-67
2022/05/02 01:09:39;;;;;;;10.37;5.73;;;;;;;-142.75;100.00;78326.56;5029676;28;19982;-67
2022/05/02 01:12:06;;;;;;;9.03;6.00;;;;;;;-142.75;100.00;78322.63;5029505;28;20025;-67
2022/05/02 01:14:34;;;;;;;12.00;6.70;;;;;;;-142.75;100.00;78326.56;5029593;28;20104;-67
2022/05/02 01:17:00;;;;;;;10.57;5.90;;;;;;;-142.75;100.00;78332.47;5029495;28;20039;-67
2022/05/02 01:19:25;;;;;;;10.15;6.05;;;;;;;-142.75;100.00;78330.50;5030308;28;20032;-67
2022/05/02 01:21:50;;;;;;;11.52;5.97;;;;;;;-142.75;100.00;78336.41;5044598;28;20017;-68
2022/05/02 01:24:16;;;;;;;8.85;5.82;;;;;;;-142.75;100.00;78346.25;5049229;28;20044;-68
2022/05/02 01:26:41;;;;;;;9.75;6.18;;;;;;;-142.75;100.00;78350.19;5049329;28;20155;-67
2022/05/02 01:29:06;;;;;;;12.32;6.68;;;;;;;-142.75;100.00;78354.13;5031387;28;20386;-67
2022/05/02 01:31:32;;;;;;;10.50;6.43;;;;;;;-142.75;100.00;78352.16;5048925;28;20029;-67
2022/05/02 01:33:57;;;;;;;12.32;6.30;;;;;;;-142.75;100.00;78346.25;5049206;28;20438;-67
2022/05/02 01:36:23;;;;;;;11.65;6.20;;;;;;;-142.75;100.00;78348.22;5049211;28;20025;-67
2022/05/02 01:38:50;;;;;;;12.35;6.93;;;;;;;-142.75;100.00;78340.34;5031214;28;20071;-67
2022/05/02 01:41:16;;;;;;;12.17;6.80;;;;;;;-142.75;100.00;78338.38;5048937;28;21694;-67
2022/05/02 01:43:42;;;;;;;10.27;6.50;;;;;;;-142.75;100.00;78362.00;5029450;28;20021;-67
2022/05/02 01:46:08;;;;;;;13.10;7.87;;;;;;;-142.75;100.00;78350.19;5029233;28;20021;-67
2022/05/02 01:48:34;;;;;;;9.87;6.83;;;;;;;-142.75;100.00;78350.19;5029594;28;20061;-67
2022/05/02 01:50:59;;;;;;;12.95;7.47;;;;;;;-142.75;100.00;78358.06;5029377;28;20564;-67
2022/05/02 01:53:25;;;;;;;11.32;7.30;;;;;;;-142.75;100.00;78375.78;5012144;28;20053;-67
2022/05/02 01:55:51;;;;;;;11.88;7.82;;;;;;;-142.75;100.00;78367.91;5049820;28;20486;-67
2022/05/02 01:58:17;;;;;;;13.25;7.32;;;;;;;-142.75;100.00;78377.75;5035899;28;20030;-67
2022/05/02 02:00:43;;;;;;;10.57;6.78;;;;;;;-142.75;100.00;78379.72;5032978;28;20029;-67
2022/05/02 02:03:08;;;;;;;13.95;7.68;;;;;;;-142.75;100.00;78389.56;5033359;28;20389;-67
2022/05/02 02:05:48;;;;;;;14.55;6.90;;;;;;;-142.75;100.00;78395.47;5033105;28;20059;-67
2022/05/02 02:08:28;;;;;;;13.40;6.93;;;;;;;-142.75;100.00;78385.63;5032861;28;20441;-67
2022/05/02 02:10:57;;;;;;;10.53;7.10;;;;;;;-142.75;100.00;78381.69;5032768;28;20036;-67
2022/05/02 02:13:22;;;;;;;12.10;6.97;;;;;;;-142.75;100.00;78383.66;5015339;28;20021;-67
2022/05/02 02:15:48;;;;;;;11.00;7.15;;;;;;;-142.75;100.00;78377.75;5032922;28;20380;-67
2022/05/02 02:18:13;;;;;;;12.63;6.60;;;;;;;-142.75;100.00;78383.66;5032944;28;20095;-67
2022/05/02 02:20:42;;;;;;;14.25;6.90;;;;;;;-142.75;100.00;78387.59;5033342;28;20096;-67
2022/05/02 02:23:09;;;;;;;11.37;6.97;;;;;;;-142.75;100.00;78389.56;5032767;28;20037;-67
2022/05/02 02:25:34;;;;;;;;;;;;;;;-142.75;100.00;78397.44;5048302;28;20490;-67
2022/05/02 02:28:00;;;;;;;11.03;6.70;;;;;;;-142.75;100.00;78397.44;5051262;28;19916;-67
2022/05/02 02:30:26;;;;;;;13.37;7.57;;;;;;;-142.75;100.00;78399.44;5052247;28;20032;-67
2022/05/02 02:32:52;;;;;;;12.37;7.37;;;;;;;-142.75;100.00;78389.56;5052334;28;20090;-66
2022/05/02 02:35:20;;;;;;;12.07;6.77;;;;;;;-142.75;100.00;78393.50;5052214;28;20029;-67
2022/05/02 02:37:46;;;;;;;10.10;7.07;;;;;;;-142.75;100.00;78399.44;5052044;28;20367;-67
2022/05/02 02:40:11;;;;;;;12.65;7.15;;;;;;;-142.75;100.00;78415.19;5050812;28;20108;-67
2022/05/02 02:42:38;;;;;;;10.93;7.13;;;;;;;-142.75;100.00;78411.25;5051899;28;20029;-67
2022/05/02 02:45:03;;;;;;;13.30;7.43;;;;;;;-142.75;100.00;78425.03;5052142;28;20048;-67
2022/05/02 02:47:29;;;;;;;13.27;7.25;;;;;;;-142.75;100.00;78428.97;5034274;28;20462;-67
2022/05/02 02:49:54;;;;;;;10.70;7.00;;;;;;;-142.75;100.00;78423.06;5052703;28;20028;-67
2022/05/02 02:52:19;;;;;;;10.40;6.65;;;;;;;-142.75;100.00;78419.13;5051767;28;20028;-67
2022/05/02 02:54:45;;;;;;;10.70;6.57;;;;;;;-142.75;100.00;78419.13;5051898;28;20021;-66
2022/05/02 02:57:10;;;;;;;10.25;6.07;;;;;;;-142.75;100.00;78409.28;5034048;28;20112;-67
2022/05/02 02:59:35;;;;;;;10.65;6.75;;;;;;;-142.75;100.00;78417.16;5051779;28;20086;-67
2022/05/02 03:02:01;;;;;;;12.30;7.13;;;;;;;-142.75;100.00;78425.03;5051478;28;20063;-67
2022/05/02 03:07:12;;;;;;;10.40;6.83;;;;;;;-142.75;100.00;78427.00;5051311;28;20079;-67
2022/05/02 03:09:37;;;;;;;14.73;7.77;;;;;;;-142.75;100.00;78432.91;5051511;28;20490;-67
2022/05/02 03:12:03;;;;;;;11.93;6.90;;;;;;;-142.75;100.00;78432.91;5051169;28;20082;-67
2022/05/02 03:14:28;;;;;;;11.45;7.50;;;;;;;-142.75;100.00;78430.94;5050312;28;20025;-67
2022/05/02 03:16:53;;;;;;;10.98;7.05;;;;;;;-142.75;100.00;78432.91;5051410;28;20087;-67
2022/05/02 03:19:19;;;;;;;11.60;6.97;;;;;;;-142.75;100.00;78434.88;5052106;28;20025;-67
2022/05/02 03:21:44;;;;;;;10.45;7.32;;;;;;;-142.75;100.00;78434.88;5033319;28;20029;-67
2022/05/02 03:24:09;;;;;;;12.23;6.90;;;;;;;-142.75;100.00;78438.81;5051166;28;20029;-67
2022/05/02 03:26:35;;;;;;;12.30;7.30;;;;;;;-142.75;100.00;78442.75;5051321;28;20025;-67
2022/05/02 03:29:00;;;;;;;16.67;8.18;;;;;;;-142.75;100.00;78444.72;5051087;28;20036;-67
2022/05/02 03:31:25;;;;;;;10.50;7.10;;;;;;;-142.75;100.00;78442.75;5051074;28;20068;-67
2022/05/02 03:33:51;;;;;;;10.57;6.78;;;;;;;-142.75;100.00;78448.66;5051273;28;20683;-67
2022/05/02 03:36:16;;;;;;;10.20;6.68;;;;;;;-142.75;100.00;78450.63;5051189;28;20025;-67
2022/05/02 03:38:41;;;;;;;11.18;7.10;;;;;;;-142.75;100.00;78450.63;5066389;22;20028;-67
2022/05/02 03:41:07;;;;;;;10.20;6.72;;;;;;;-142.75;100.00;78444.72;5008875;28;20056;-66
2022/05/02 03:43:33;;;;;;;12.23;7.53;;;;;;;-142.75;100.00;78456.53;5008826;28;20522;-67
2022/05/02 03:45:58;;;;;;;9.85;6.40;;;;;;;-142.75;100.00;78440.78;5011373;28;20105;-66
2022/05/02 03:48:26;;;;;;;11.80;7.25;;;;;;;-142.75;100.00;78448.66;5011224;28;20021;-66
2022/05/02 03:50:52;;;;;;;12.07;6.70;;;;;;;-142.75;100.00;78442.75;5011548;28;20421;-66
2022/05/02 03:53:18;;;;;;;19.63;7.90;;;;;;;-142.75;100.00;78438.81;5026328;28;20034;-66
2022/05/02 03:55:45;;;;;;;12.70;7.50;;;;;;;-142.75;100.00;78430.94;5011060;28;20387;-66
2022/05/02 03:58:11;;;;;;;12.40;7.87;;;;;;;-142.75;100.00;78432.91;5011161;28;20029;-66
2022/05/02 04:00:36;;;;;;;12.80;7.18;;;;;;;-142.75;100.00;78436.84;5010586;28;20029;-66
2022/05/02 04:03:01;;;;;;;11.55;7.43;;;;;;;-142.75;100.00;78436.84;5010867;28;20113;-66
2022/05/02 04:05:27;;;;;;;13.73;7.72;;;;;;;-142.75;100.00;78421.09;5010934;28;20022;-66
2022/05/02 04:07:52;;;;;;;11.68;7.80;;;;;;;-142.75;100.00;78423.06;5010815;28;20041;-66
2022/05/02 04:10:18;;;;;;;11.38;7.38;;;;;;;-142.75;100.00;78407.31;5009261;28;20038;-67
2022/05/02 04:12:43;;;;;;;13.85;7.90;;;;;;;-142.75;100.00;78403.38;5010599;28;20105;-66
2022/05/02 04:15:09;;;;;;;14.77;8.07;;;;;;;-142.75;100.00;78407.31;5010734;28;20494;-66
2022/05/02 04:17:35;;;;;;;12.20;7.80;;;;;;;-142.75;100.00;78417.16;5006906;28;20546;-66
2022/05/02 04:20:02;;;;;;;12.15;7.60;;;;;;;-142.75;100.00;78411.25;5026453;28;20033;-66
2022/05/02 04:22:28;;;;;;;13.20;7.57;;;;;;;-142.75;100.00;78409.28;5008989;28;20056;-66
2022/05/02 04:24:53;;;;;;;15.60;8.18;;;;;;;-142.75;100.00;78405.34;5009362;28;20483;-66
2022/05/02 04:27:18;;;;;;;11.80;7.15;;;;;;;-142.75;100.00;78413.22;5008930;28;20026;-66
2022/05/02 04:29:43;;;;;;;10.30;7.00;;;;;;;-142.75;100.00;78413.22;5010475;28;20072;-68
2022/05/02 04:32:09;;;;;;;11.90;7.75;;;;;;;-142.75;100.00;78415.19;5010188;28;20053;-66
2022/05/02 04:34:34;;;;;;;13.27;7.80;;;;;;;-142.75;100.00;78421.09;5010317;28;20041;-66
2022/05/02 04:36:59;;;;;;;8.98;6.03;;;;;;;-142.75;100.00;78425.03;5010157;28;20030;-66
2022/05/02 04:39:25;;;;;;;8.55;5.70;;;;;;;-142.75;100.00;78427.00;5010119;28;20109;-66
2022/05/02 04:41:50;;;;;;;10.13;6.40;;;;;;;-142.75;100.00;78434.88;5010105;28;20109;-66
2022/05/02 04:44:15;;;;;;;11.90;6.67;;;;;;;-142.75;100.00;78436.84;5009007;28;20339;-66
2022/05/02 04:46:41;;;;;;;10.13;6.82;;;;;;;-142.75;100.00;78434.88;5008891;28;20101;-66
2022/05/02 04:49:06;;;;;;;9.68;6.50;;;;;;;-142.75;100.00;78425.03;5009033;28;20060;-65
2022/05/02 04:51:31;;;;;;;9.73;6.65;;;;;;;-142.75;100.00;78425.03;5010216;28;20113;-67
2022/05/02 04:53:57;;;;;;;10.32;5.95;;;;;;;-142.75;100.00;78428.97;5010187;28;20018;-66
2022/05/02 04:56:22;;;;;;;8.60;5.63;;;;;;;-142.75;100.00;78427.00;5006787;28;20033;-66
2022/05/02 04:58:47;;;;;;;7.82;5.68;;;;;;;-142.75;100.00;78430.94;5006331;28;20029;-66
2022/05/02 05:01:12;;;;;;;7.45;4.78;;;;;;;-142.75;100.00;78423.06;5005019;28;20028;-66
2022/05/02 05:03:38;;;;;;;7.63;4.78;;;;;;;-142.75;100.00;78409.28;5000456;28;20383;-66
2022/05/02 05:06:04;;;;;;;7.53;3.55;;;;;;;-142.75;100.00;78395.47;5007075;28;20041;-66
2022/05/02 05:08:29;;;;;;;5.25;3.67;;;;;;;-142.75;100.00;78379.72;5009803;28;20021;-66
2022/05/02 05:11:13;;;;;;;7.53;4.95;;;;;;;-142.75;100.00;78375.78;5006799;28;20095;-66
2022/05/02 05:13:44;;;;;;;7.10;4.93;;;;;;;-142.75;100.00;78360.03;5008356;28;20080;-66
2022/05/02 05:16:51;;;;;;;6.33;4.17;;;;;;;-142.75;100.00;78344.28;5009809;28;20430;-66
2022/05/02 05:19:49;;;;;;;5.77;3.80;;;;;;;-142.75;100.00;78336.41;4944837;28;20096;-66
2022/05/02 05:22:31;;;;;;;5.40;4.03;;;;;;;-142.75;100.00;78324.59;5009544;28;20056;-66
2022/05/02 05:25:33;;;;;;;6.50;4.67;;;;;;;-142.75;100.00;78308.84;5006832;28;20100;-66
2022/05/02 05:28:28;;;;;;;8.57;5.00;;;;;;;-142.75;100.00;78308.84;5009358;28;20041;-65
2022/05/02 05:31:10;;;;;;;11.87;6.90;;;;;;;-142.75;100.00;78300.97;5008132;28;20045;-66
2022/05/02 05:33:56;;;;;;;13.40;8.37;;;;;;;-142.75;100.00;78277.31;5008190;28;20116;-65
2022/05/02 05:36:47;;;;;;;11.77;7.30;;;;;;;-142.75;100.00;78269.44;5008756;28;20554;-66
2022/05/02 05:39:40;;;;;;;14.47;7.67;;;;;;;-142.75;100.00;78253.69;5008123;28;20443;-66
2022/05/02 05:42:27;;;;;;;13.53;7.43;;;;;;;-142.75;100.00;78232.03;5006711;28;20100;-66
2022/05/02 05:45:21;;;;;;;16.20;7.68;;;;;;;-142.75;100.00;78200.53;5006775;28;20030;-66
2022/05/02 05:47:58;;;;;;;15.57;9.03;;;;;;;-142.75;100.00;78188.72;5008197;28;20026;-65
2022/05/02 05:50:30;;;;;;;15.60;9.37;;;;;;;-142.75;100.00;78178.84;5008634;28;20069;-66
2022/05/02 05:53:46;;;;;;;14.30;8.93;;;;;;;-142.75;100.00;78147.34;5008082;28;20484;-66
2022/05/02 05:56:44;;;;;;;16.87;9.40;;;;;;;-142.75;100.00;78137.50;4981793;28;20041;-66
2022/05/02 05:59:39;;;;;;;19.77;9.80;;;;;;;-142.75;100.00;78115.84;5004913;28;20038;-66
2022/05/02 06:02:18;;;;;;;13.07;8.80;;;;;;;-142.75;100.00;78107.97;5004858;28;20032;-66
2022/05/02 06:04:48;;;;;;;17.40;9.40;;;;;;;-142.75;100.00;78082.38;5005773;28;20045;-66
2022/05/02 06:07:16;;;;;;;15.63;9.30;;;;;;;-142.75;100.00;78062.69;5006448;28;20407;-66
2022/05/02 06:09:43;;;;;;;14.97;9.90;;;;;;;-142.75;100.00;78046.91;5004803;28;20037;-66
2022/05/02 06:12:12;;;;;;;13.37;8.77;;;;;;;-142.75;100.00;78025.25;5004701;28;20050;-66
2022/05/02 06:20:14;;;;;;;13.93;8.95;;;;;;;-142.75;100.00;77954.38;5005625;28;20073;-66
2022/05/02 06:22:40;;;;;;;17.52;9.20;;;;;;;-142.75;100.00;77962.25;5005429;28;20030;-66
2022/05/02 06:25:06;;;;;;;15.15;9.55;;;;;;;-142.75;100.00;77948.47;4998888;28;20042;-66
2022/05/02 06:27:33;;;;;;;16.60;9.05;;;;;;;-142.75;100.00;77922.88;4999543;28;20067;-64
2022/05/02 06:30:03;;;;;;;17.17;9.25;;;;;;;-142.75;100.00;77901.19;5001711;28;20061;-66
2022/05/02 06:32:30;;;;;;;17.13;9.85;;;;;;;-142.75;100.00;77887.41;5002535;28;20034;-66
2022/05/02 06:34:55;;;;;;;14.35;9.23;;;;;;;-142.75;100.00;77859.84;5001837;28;20395;-66
2022/05/02 06:37:33;;;;;;;14.30;8.77;;;;;;;-142.75;100.00;77834.25;5005108;28;20036;-66
2022/05/02 06:40:21;;;;;;;15.02;8.98;;;;;;;-142.75;100.00;77857.88;5007037;28;20080;-66
2022/05/02 06:43:17;;;;;;;13.80;8.85;;;;;;;-142.75;100.00;77826.38;5010930;28;20034;-65
2022/05/02 06:46:37;;;;;;;16.05;9.05;;;;;;;-142.75;100.00;77798.81;5010740;28;20054;-65
2022/05/02 06:49:08;;;;;;;14.07;8.82;;;;;;;-142.75;100.00;77779.13;4949278;29;20508;-65
2022/05/02 06:51:39;;;;;;;15.15;9.10;;;;;;;-142.75;100.00;77745.66;5012302;28;20395;-66
2022/05/02 06:54:22;;;;;;;14.52;9.05;;;;;;;-142.75;100.00;77729.88;5003830;28;20072;-66
2022/05/02 06:57:11;;;;;;;15.20;8.75;;;;;;;-142.75;100.00;77712.16;5007672;28;20461;-66
2022/05/02 06:59:58;;;;;;;15.00;9.68;;;;;;;-142.75;100.00;77660.97;5007649;28;20112;-65
2022/05/02 07:02:49;;;;;;;13.73;9.00;;;;;;;-142.75;100.00;77633.41;5004093;28;20118;-65
2022/05/02 07:05:39;;;;;;;14.50;8.38;;;;;;;-142.75;100.00;77625.53;5009918;28;20033;-66
2022/05/02 07:08:06;;;;;;;17.17;8.65;;;;;;;-142.75;100.00;77601.91;5007068;28;20037;-65
2022/05/02 07:10:36;;;;;;;14.18;8.27;;;;;;;-142.75;100.00;77574.34;5009357;28;20037;-67
2022/05/02 07:13:29;;;;;;;11.55;8.43;;;;;;;-142.75;100.00;77558.59;5009992;28;21728;-67
2022/05/02 07:16:05;;;;;;;14.35;8.18;;;;;;;-142.75;100.00;77519.22;5008689;28;20040;-66
2022/05/02 07:18:33;;;;;;;12.13;8.35;;;;;;;-142.75;100.00;77495.59;5007217;28;20525;-66
2022/05/02 07:21:35;;;;;;;16.42;9.07;;;;;;;-142.75;100.00;77471.97;5010072;28;20056;-65
2022/05/02 07:24:39;;;;;;;14.80;8.98;;;;;;;-142.75;100.00;77475.91;5009241;28;20026;-67
2022/05/02 07:27:35;;;;;;;10.88;6.93;;;;;;;-142.75;100.00;77432.56;4948838;29;20038;-65
2022/05/02 07:30:00;;;;;;;14.48;8.13;;;;;;;-142.75;100.00;77418.78;5007672;28;20100;-66
2022/05/02 07:32:27;;;;;;;16.77;8.95;;;;;;;-142.75;100.00;77389.25;5008996;28;20026;-65
2022/05/02 07:34:54;;;;;;;13.02;8.68;;;;;;;-142.75;100.00;77361.69;5006913;28;20364;-66
2022/05/02 07:37:22;;;;;;;12.35;7.50;;;;;;;-142.75;100.00;77326.25;5009174;28;20034;-65
2022/05/02 07:39:49;;;;;;;14.38;8.77;;;;;;;-142.75;100.00;77298.69;5001581;28;20022;-66
2022/05/02 07:42:14;;;;;;;15.73;7.80;;;;;;;-142.75;100.00;77300.66;5003623;28;20030;-66
2022/05/02 07:44:43;;;;;;;15.15;8.70;;;;;;;-142.75;100.00;77300.66;5004120;28;20034;-67
2022/05/02 07:47:13;;;;;;;13.98;7.97;;;;;;;-142.75;100.00;77273.09;5001131;28;20032;-65
2022/05/02 07:49:43;;;;;;;15.77;7.93;;;;;;;-142.75;100.00;77249.47;5004833;28;20103;-65
2022/05/02 07:52:11;;;;;;;13.77;7.43;;;;;;;-142.75;100.00;77239.63;5002882;28;20037;-66
2022/05/02 07:54:38;;;;;;;12.27;7.22;;;;;;;-142.75;100.00;77212.06;5009481;28;20139;-66
2022/05/02 07:57:07;;;;;;;10.70;7.18;;;;;;;-142.75;100.00;77182.53;5005695;28;20046;-65
2022/05/02 07:59:38;;;;;;;12.73;7.43;;;;;;;-142.75;100.00;77153.00;5009493;28;20033;-66
2022/05/02 08:02:05;;;;;;;11.93;6.97;;;;;;;-142.75;100.00;77137.25;5009322;28;20033;-67
2022/05/02 08:04:30;;;;;;;13.82;7.45;;;;;;;-142.75;100.00;77109.69;5009395;28;20034;-66
2022/05/02 08:07:00;;;;;;;;;;;;;;;-142.75;100.00;77105.75;5008677;28;20021;-67
2022/05/02 08:09:53;;;;;;;12.43;7.07;;;;;;;-142.75;100.00;77101.81;5009141;28;19914;-66
2022/05/02 08:12:39;;;;;;;11.18;6.57;;;;;;;-142.75;100.00;77090.00;5008496;28;20088;-66
2022/05/02 08:15:45;;;;;;;11.50;7.28;;;;;;;-142.75;100.00;77078.19;5008619;28;20518;-65
2022/05/02 08:18:36;;;;;;;12.48;7.07;;;;;;;-142.75;100.00;77090.00;4987953;28;20100;-66
2022/05/02 08:21:45;;;;;;;12.27;7.30;;;;;;;-142.75;97.51;77068.34;5009055;28;20030;-66
2022/05/02 08:27:56;;;;;;;15.60;7.30;;;;;;;-142.75;95.67;77025.03;5007061;28;20040;-66
2022/05/02 08:30:25;;;;;;;13.13;7.63;;;;;;;-142.75;100.00;76973.84;5008161;28;20066;-66
2022/05/02 08:33:00;;;;;;;12.50;7.78;;;;;;;-142.75;96.12;76967.94;5004740;28;23362;-67
2022/05/02 08:36:02;;;;;;;12.00;7.03;;;;;;;-142.75;91.03;76965.97;5004689;28;20265;-67
2022/05/02 08:38:41;;;;;;;9.70;6.43;;;;;;;-142.75;90.32;76889.19;5005094;28;20499;-65
2022/05/02 08:41:42;;;;;;;11.00;6.75;;;;;;;-142.75;88.87;76914.78;5008407;28;20057;-67
2022/05/02 08:44:19;;;;;;;10.73;6.72;;;;;;;-142.75;88.80;76871.47;4985147;28;20530;-67
2022/05/02 08:47:01;;;;;;;10.30;7.25;;;;;;;-142.75;84.65;76877.38;5003269;28;20029;-67
2022/05/02 08:49:41;;;;;;;12.00;7.15;;;;;;;-142.75;81.06;76877.38;5008104;28;20045;-65
2022/05/02 08:52:38;;;;;;;13.18;6.97;;;;;;;-142.75;81.04;76849.81;5004268;28;20509;-66
2022/05/02 08:55:40;;;;;;;12.18;7.25;;;;;;;-142.75;74.29;76851.78;5007859;28;20044;-66
2022/05/02 08:58:21;;;;;;;12.60;7.57;;;;;;;-142.75;77.01;76820.28;5004581;28;20104;-66
2022/05/02 09:01:23;;;;;;;12.50;7.07;;;;;;;-142.75;79.78;76810.44;5008832;28;20136;-66
2022/05/02 09:04:10;;;;;;;9.68;6.53;;;;;;;-142.75;76.38;76780.94;5006107;28;20403;-66
2022/05/02 09:06:55;;;;;;;;;;;;;;;-142.75;69.74;76802.56;5008364;28;20075;-66
2022/05/02 09:09:42;;;;;;;10.68;6.35;;;;;;;-142.75;69.58;76790.78;5009604;28;19917;-67
2022/05/02 09:12:19;;;;;;;11.50;6.30;;;;;;;-142.75;66.02;76755.34;5010173;28;20128;-67
2022/05/02 09:15:05;;;;;;;9.18;5.07;;;;;;;-142.75;68.62;76708.09;5008383;28;20642;-66
2022/05/02 09:17:54;;;;;;;9.40;5.38;;;;;;;-142.75;62.46;76688.41;5006792;28;20038;-66
2022/05/02 09:20:40;;;;;;;8.95;6.07;;;;;;;-142.75;61.21;76717.94;5006642;28;20026;-66
2022/05/02 09:23:18;;;;;;;13.23;6.63;;;;;;;-142.75;63.71;76710.06;4967360;28;20049;-67
2022/05/02 09:26:21;;;;;;;9.63;5.38;;;;;;;-142.75;60.61;76684.47;5007944;28;20375;-66
2022/05/02 09:29:27;;;;;;;8.77;6.07;;;;;;;-142.75;58.76;76702.19;5006910;28;20056;-66
2022/05/02 09:31:59;;;;;;;8.70;6.13;;;;;;;-142.75;63.44;76670.69;4961928;28;20038;-66
2022/05/02 09:34:36;;;;;;;8.82;6.00;;;;;;;-142.75;63.07;76647.06;5006663;28;20037;-67
2022/05/02 09:37:20;;;;;;;12.25;6.32;;;;;;;-142.75;65.12;76654.94;5005474;28;20510;-66
2022/05/02 09:39:47;;;;;;;10.70;6.30;;;;;;;-142.75;61.90;76666.75;5034134;22;21504;-67
2022/05/02 09:42:39;;;;;;;9.70;6.18;;;;;;;-142.75;65.08;76645.09;5030935;28;20561;-66
2022/05/02 09:51:42;;;;;;;9.55;5.40;;;;;;;-142.75;58.20;76613.59;5031742;28;20180;-67
2022/05/02 09:57:18;;;;;;;10.88;5.32;;;;;;;-142.75;59.82;76629.34;5031646;28;20054;-67
2022/05/02 10:01:06;;;;;;;8.43;5.40;;;;;;;-142.75;59.30;76611.63;5032463;28;20536;-67
2022/05/02 10:02:46;;;;;;;9.90;5.50;;;;;;;-142.75;58.85;76601.78;5032371;28;20479;-67
2022/05/02 10:05:28;;;;;;;13.07;5.55;;;;;;;-142.75;58.54;76586.03;5032145;28;20021;-67
2022/05/02 10:08:49;;;;;;;9.48;5.63;;;;;;;-142.75;57.56;76641.16;5031669;28;20029;-66
2022/05/02 10:11:32;;;;;;;8.48;5.55;;;;;;;-142.75;57.19;76595.88;4953856;28;20027;-67
2022/05/02 10:14:19;;;;;;;11.30;5.53;;;;;;;-142.75;59.60;76584.06;5030441;28;20085;-67
2022/05/02 10:16:57;;;;;;;9.35;6.13;;;;;;;-142.75;56.92;76548.63;5035258;28;20029;-67
2022/05/02 10:20:00;;;;;;;10.98;6.05;;;;;;;-142.75;58.25;76525.03;5034582;28;20029;-67
2022/05/02 10:22:46;;;;;;;8.63;5.72;;;;;;;-142.75;58.17;76580.13;5035367;28;20043;-67
2022/05/02 10:25:35;;;;;;;7.80;5.55;;;;;;;-142.75;56.04;76511.25;5033349;28;20036;-67
2022/05/02 10:28:12;;;;;;;10.02;5.82;;;;;;;-142.75;58.70;76538.78;5033961;28;20026;-66
2022/05/02 10:30:41;;;;;;;9.55;5.18;;;;;;;-142.75;53.75;76548.63;5033922;28;20029;-66
2022/05/02 10:33:12;;;;;;;9.70;5.15;;;;;;;-142.75;54.27;76527.00;5032838;28;20032;-66
2022/05/02 10:35:44;;;;;;;8.10;4.53;;;;;;;-142.75;54.70;76523.06;5035301;28;20038;-66
2022/05/02 10:38:13;;;;;;;9.52;5.13;;;;;;;-142.75;52.90;76475.81;5033377;28;20033;-66
2022/05/02 10:40:44;;;;;;;10.95;4.47;;;;;;;-142.75;51.04;76521.09;5032123;28;20036;-66
2022/05/02 10:43:16;;;;;;;7.10;4.65;;;;;;;-142.75;53.82;76475.81;5034283;28;20120;-66
2022/05/02 10:45:42;;;;;;;8.93;5.40;;;;;;;-142.75;55.76;76465.97;5033654;28;20048;-66
2022/05/02 10:48:35;;;;;;;8.05;5.32;;;;;;;-142.75;55.78;76440.38;5033451;28;20071;-66
2022/05/02 10:51:18;;;;;;;8.10;5.45;;;;;;;-142.75;53.63;76416.75;5035176;28;20106;-66
2022/05/02 10:54:27;;;;;;;9.52;5.63;;;;;;;-142.75;54.88;76440.38;5035757;28;20049;-66
2022/05/02 10:57:03;;;;;;;6.80;5.00;;;;;;;-142.75;48.41;76377.38;5034980;28;20053;-66
2022/05/02 10:59:34;;;;;;;;;;;;;;;-142.75;45.67;76402.97;5035002;28;20022;-66
2022/05/02 11:02:11;;;;;;;8.82;4.28;;;;;;;-142.75;46.65;76387.22;5034340;28;19939;-66
2022/05/02 11:04:55;;;;;;;7.25;4.78;;;;;;;-142.75;50.57;76385.25;5034153;28;20025;-66
2022/05/02 11:07:49;;;;;;;8.05;4.97;;;;;;;-142.75;48.00;76389.19;5034320;28;20024;-66
2022/05/02 11:10:19;;;;;;;9.18;5.22;;;;;;;-142.75;48.87;76393.13;5033917;28;20075;-66
2022/05/02 11:13:11;;;;;;;8.55;5.28;;;;;;;-142.75;51.11;76369.50;5034197;28;20115;-66
2022/05/02 11:16:09;;;;;;;8.07;5.18;;;;;;;-142.75;47.38;76381.31;5034567;28;20116;-66
2022/05/02 11:21:44;;;;;;;5.40;3.67;;;;;;;-142.75;43.18;76404.94;5033800;28;20541;-66
2022/05/02 11:24:28;;;;;;;;;;;;;;;-142.75;42.67;76351.81;5034599;28;20048;-66
2022/05/02 11:27:08;;;;;;;8.95;4.82;;;;;;;-142.75;45.42;76318.34;5032958;28;19999;-66
2022/05/02 11:30:06;;;;;;;7.00;4.60;;;;;;;-142.75;44.65;76369.50;5032818;28;20029;-67
2022/05/02 11:32:53;;;;;;;6.70;4.78;;;;;;;-142.75;50.48;76367.53;5028167;28;20045;-66
2022/05/02 11:35:34;;;;;;;9.68;4.95;;;;;;;-142.75;50.04;76326.22;5033358;28;20148;-66
2022/05/02 11:38:26;;;;;;;8.55;5.35;;;;;;;-142.75;51.40;76322.28;5032538;28;20029;-66
2022/05/02 11:40:57;;;;;;;9.30;5.40;;;;;;;-142.75;46.89;76345.91;5033292;28;20398;-67
2022/05/02 11:43:23;;;;;;;7.90;4.95;;;;;;;-142.75;47.62;76385.25;5034058;28;20422;-66
2022/05/02 11:46:10;;;;;;;6.78;4.53;;;;;;;-142.75;49.67;76385.25;5033956;28;20025;-67
2022/05/02 11:48:45;;;;;;;;;;;;;;;-142.75;47.53;76373.44;5034447;28;20040;-66
2022/05/02 11:51:19;;;;;;;8.88;4.72;;;;;;;-142.75;47.89;76341.97;5032754;28;19913;-66
2022/05/02 11:53:48;;;;;;;7.40;5.00;;;;;;;-142.75;52.01;76347.84;5031042;28;20112;-66
2022/05/02 11:56:16;;;;;;;8.65;5.60;;;;;;;-142.75;52.84;76320.31;5032200;28;20026;-62
2022/05/02 11:58:48;;;;;;;8.45;5.22;;;;;;;-142.75;50.64;76310.47;5031521;28;20479;-62
2022/05/02 12:01:25;;;;;;;7.55;5.10;;;;;;;-142.75;49.69;76328.19;5029714;28;20036;-62
2022/05/02 12:03:59;;;;;;;6.22;4.07;;;;;;;-142.75;47.04;76314.41;5031392;28;20104;-62